createdAt,value
2017-05-31T00:01:34.466Z,12.92
2017-05-31T00:04:02.831Z,13.00
2017-05-31T00:06:31.550Z,13.88
2017-05-31T00:08:59.914Z,13.22
2017-05-31T00:11:28.231Z,14.16
2017-05-31T00:13:56.992Z,12.50
2017-05-31T00:16:25.348Z,13.20
2017-05-31T00:18:53.674Z,12.82
2017-05-31T00:21:22.313Z,13.16
2017-05-31T00:23:50.705Z,14.30
2017-05-31T00:26:19.031Z,15.02
2017-05-31T00:28:46.846Z,13.82
2017-05-31T00:31:15.205Z,13.50
2017-05-31T00:33:43.557Z,13.08
2017-05-31T00:36:12.140Z,15.40
2017-05-31T00:38:40.462Z,14.56
2017-05-31T00:41:08.859Z,15.38
2017-05-31T00:43:37.599Z,14.82
2017-05-31T00:46:05.917Z,17.00
2017-05-31T00:48:33.467Z,17.42
2017-05-31T00:51:02.187Z,17.32
2017-05-31T00:53:30.539Z,16.96
2017-05-31T00:55:58.875Z,16.90
2017-05-31T00:58:27.452Z,18.60
2017-05-31T01:00:55.808Z,19.16
2017-05-31T01:03:24.140Z,18.92
2017-05-31T01:05:52.800Z,18.80
2017-05-31T01:08:21.148Z,21.06
2017-05-31T01:10:48.736Z,20.90
2017-05-31T01:13:16.658Z,21.40
2017-05-31T01:15:44.258Z,23.94
2017-05-31T01:18:12.620Z,22.32
2017-05-31T01:20:41.238Z,22.44
2017-05-31T01:23:09.712Z,22.10
2017-05-31T01:25:38.062Z,22.86
2017-05-31T01:28:06.718Z,21.90
2017-05-31T01:30:34.307Z,25.16
2017-05-31T01:33:02.720Z,25.64
2017-05-31T01:35:31.353Z,23.12
2017-05-31T01:37:59.837Z,24.78
2017-05-31T01:40:28.160Z,26.82
2017-05-31T01:42:56.829Z,25.26
2017-05-31T01:45:25.177Z,25.20
2017-05-31T01:47:53.514Z,27.76
2017-05-31T01:50:22.253Z,26.88
2017-05-31T01:52:49.815Z,27.92
2017-05-31T01:55:18.124Z,28.82
2017-05-31T01:57:46.901Z,27.88
2017-05-31T02:00:15.773Z,27.10
2017-05-31T02:02:44.118Z,28.28
2017-05-31T02:05:12.710Z,28.90
2017-05-31T02:07:41.086Z,27.88
2017-05-31T02:10:09.456Z,28.68
2017-05-31T02:12:38.137Z,28.86
2017-05-31T02:15:05.727Z,28.90
2017-05-31T02:17:34.058Z,29.68
2017-05-31T02:20:02.707Z,30.76
2017-05-31T02:22:31.037Z,30.32
2017-05-31T02:24:58.594Z,34.04
2017-05-31T02:27:27.339Z,28.48
2017-05-31T02:29:55.658Z,30.36
2017-05-31T02:32:24.062Z,33.24
2017-05-31T02:34:51.873Z,30.76
2017-05-31T02:37:20.222Z,30.42
2017-05-31T02:39:48.611Z,30.74
2017-05-31T02:42:17.445Z,30.84
2017-05-31T02:44:45.031Z,30.98
2017-05-31T02:47:13.416Z,31.36
2017-05-31T02:49:41.999Z,32.72
2017-05-31T02:52:10.365Z,30.98
2017-05-31T02:54:38.727Z,30.88
2017-05-31T02:57:07.347Z,31.96
2017-05-31T02:59:35.700Z,31.40
2017-05-31T03:02:04.049Z,30.32
2017-05-31T03:04:32.747Z,30.68
2017-05-31T03:07:01.082Z,31.24
2017-05-31T03:09:29.421Z,31.52
2017-05-31T03:11:58.027Z,29.42
2017-05-31T03:14:26.366Z,31.76
2017-05-31T03:16:54.754Z,31.48
2017-05-31T03:19:22.708Z,30.34
2017-05-31T03:21:50.292Z,31.62
2017-05-31T03:24:18.664Z,32.28
2017-05-31T03:26:47.321Z,31.80
2017-05-31T03:29:14.931Z,31.06
2017-05-31T03:31:42.510Z,30.02
2017-05-31T03:34:11.140Z,30.06
2017-05-31T03:36:39.508Z,30.84
2017-05-31T03:39:07.848Z,30.78
2017-05-31T03:41:36.501Z,31.40
2017-05-31T03:44:04.854Z,31.32
2017-05-31T03:46:33.278Z,32.56
2017-05-31T03:49:01.874Z,30.24
2017-05-31T03:51:30.221Z,31.90
2017-05-31T03:53:58.557Z,30.88
2017-05-31T03:56:27.166Z,31.76
2017-05-31T03:58:54.742Z,32.22
2017-05-31T04:01:23.661Z,29.66
2017-05-31T04:03:52.423Z,30.94
2017-05-31T04:06:20.774Z,31.34
2017-05-31T04:08:49.088Z,29.02
2017-05-31T04:11:17.851Z,30.24
2017-05-31T04:13:46.221Z,30.66
2017-05-31T04:16:14.559Z,28.64
2017-05-31T04:18:43.149Z,28.60
2017-05-31T04:21:10.801Z,30.04
2017-05-31T04:23:38.391Z,30.32
2017-05-31T04:26:06.856Z,29.92
2017-05-31T04:28:35.190Z,29.74
2017-05-31T04:31:03.964Z,30.04
2017-05-31T04:33:32.372Z,29.40
2017-05-31T04:36:00.803Z,30.10
2017-05-31T04:38:29.426Z,27.60
2017-05-31T04:40:57.808Z,29.64
2017-05-31T04:43:26.132Z,27.88
2017-05-31T04:45:54.837Z,25.28
2017-05-31T04:48:22.409Z,24.66
2017-05-31T04:50:52.424Z,26.18
2017-05-31T04:53:21.205Z,23.60
2017-05-31T04:55:49.568Z,22.32
2017-05-31T04:58:17.928Z,21.70
2017-05-31T05:00:45.844Z,22.44
2017-05-31T05:03:13.436Z,21.46
2017-05-31T05:05:41.817Z,20.90
2017-05-31T05:08:10.485Z,21.30
2017-05-31T05:10:38.869Z,21.84
2017-05-31T05:13:07.257Z,19.86
2017-05-31T05:15:35.841Z,19.64
2017-05-31T05:18:04.192Z,18.34
2017-05-31T05:20:31.824Z,19.30
2017-05-31T05:23:00.450Z,19.90
2017-05-31T05:25:28.799Z,17.70
2017-05-31T05:27:57.209Z,18.66
2017-05-31T05:30:25.010Z,17.96
2017-05-31T05:32:52.567Z,17.88
2017-05-31T05:35:20.188Z,17.56
2017-05-31T05:37:48.976Z,15.90
2017-05-31T05:40:17.305Z,15.16
2017-05-31T05:42:45.647Z,15.80
2017-05-31T05:45:14.240Z,14.84
2017-05-31T05:47:42.570Z,13.58
2017-05-31T05:50:10.912Z,13.70
2017-05-31T05:52:38.842Z,13.90
2017-05-31T05:55:07.207Z,13.66
2017-05-31T05:57:35.555Z,12.90
2017-05-31T06:00:04.187Z,14.78
2017-05-31T06:02:32.532Z,15.14
2017-05-31T06:05:00.844Z,13.32
2017-05-31T06:07:29.406Z,14.42
2017-05-31T06:09:57.822Z,14.16
2017-05-31T06:12:26.163Z,12.18
2017-05-31T06:14:54.883Z,13.32
2017-05-31T06:17:23.370Z,13.58
2017-05-31T06:19:51.761Z,13.60
2017-05-31T06:22:20.410Z,11.88
2017-05-31T06:24:49.026Z,11.48
2017-05-31T06:27:17.956Z,11.18
2017-05-31T06:29:46.688Z,12.02
2017-05-31T06:32:15.068Z,11.72
2017-05-31T06:34:43.400Z,11.80
2017-05-31T06:37:11.990Z,11.68
2017-05-31T06:39:40.354Z,12.02
2017-05-31T06:42:08.715Z,11.30
2017-05-31T06:44:37.293Z,11.68
2017-05-31T06:47:05.648Z,11.96
2017-05-31T06:49:33.984Z,12.40
2017-05-31T06:52:02.594Z,11.86
2017-05-31T06:54:30.187Z,12.30
2017-05-31T06:56:59.493Z,11.18
2017-05-31T06:59:28.174Z,12.22
2017-05-31T07:01:56.526Z,12.50
2017-05-31T07:04:24.856Z,11.96
2017-05-31T07:06:53.424Z,11.78
2017-05-31T07:09:21.762Z,11.90
2017-05-31T07:11:50.113Z,11.38
2017-05-31T07:14:18.750Z,11.74
2017-05-31T07:16:47.151Z,12.18
2017-05-31T07:19:15.506Z,12.02
2017-05-31T07:21:44.200Z,12.82
2017-05-31T07:24:12.548Z,12.86
2017-05-31T07:26:40.891Z,14.10
2017-05-31T07:29:08.778Z,13.02
2017-05-31T07:31:36.374Z,12.66
2017-05-31T07:34:04.705Z,14.34
2017-05-31T07:36:33.274Z,14.28
2017-05-31T07:39:00.813Z,12.52
2017-05-31T07:41:29.145Z,13.40
2017-05-31T07:43:57.775Z,15.34
2017-05-31T07:46:26.155Z,13.06
2017-05-31T07:48:54.520Z,11.72
2017-05-31T07:51:23.322Z,12.54
2017-05-31T07:53:51.717Z,12.00
2017-05-31T07:56:20.061Z,13.80
2017-05-31T07:58:47.903Z,12.30
2017-05-31T08:01:16.321Z,12.24
2017-05-31T08:03:44.669Z,14.18
2017-05-31T08:06:13.331Z,12.84
2017-05-31T08:08:41.674Z,14.72
2017-05-31T08:11:10.049Z,14.76
2017-05-31T08:13:38.694Z,13.90
2017-05-31T08:16:07.072Z,15.00
2017-05-31T08:18:34.697Z,12.30
2017-05-31T08:21:03.457Z,14.12
2017-05-31T08:23:31.784Z,13.06
2017-05-31T08:26:00.138Z,11.52
2017-05-31T08:28:28.788Z,11.82
2017-05-31T08:30:57.181Z,13.10
2017-05-31T08:33:25.548Z,12.98
2017-05-31T08:35:54.263Z,12.20
2017-05-31T08:38:22.614Z,13.34
2017-05-31T08:40:50.195Z,13.40
2017-05-31T08:43:18.806Z,13.38
2017-05-31T08:45:46.417Z,15.76
2017-05-31T08:48:14.816Z,15.38
2017-05-31T08:50:43.406Z,16.92
2017-05-31T08:53:11.008Z,15.28
2017-05-31T08:55:39.348Z,18.24
2017-05-31T08:58:08.139Z,15.20
2017-05-31T09:00:36.471Z,16.08
2017-05-31T09:03:04.813Z,11.88
2017-05-31T09:05:33.469Z,10.32
2017-05-31T09:08:01.804Z,9.78
2017-05-31T09:10:30.229Z,13.54
2017-05-31T09:12:58.824Z,12.62
2017-05-31T09:15:27.156Z,11.68
2017-05-31T09:17:55.552Z,10.78
2017-05-31T09:20:24.133Z,9.10
2017-05-31T09:22:52.456Z,8.52
2017-05-31T09:25:20.788Z,8.52
2017-05-31T09:27:49.349Z,8.48
2017-05-31T09:30:17.715Z,8.40
2017-05-31T09:32:46.049Z,8.34
2017-05-31T09:35:14.654Z,8.30
2017-05-31T09:37:43.006Z,6.06
2017-05-31T09:40:10.590Z,6.18
2017-05-31T09:42:39.359Z,5.96
2017-05-31T09:45:07.666Z,6.00
2017-05-31T09:47:36.072Z,7.18
2017-05-31T09:50:03.917Z,9.04
2017-05-31T09:52:32.252Z,6.80
2017-05-31T09:55:00.628Z,5.92
2017-05-31T09:57:29.265Z,6.68
2017-05-31T09:59:57.697Z,5.78
2017-05-31T10:02:26.018Z,5.74
2017-05-31T10:04:54.605Z,5.88
2017-05-31T10:07:22.936Z,5.24
2017-05-31T10:09:51.307Z,4.92
2017-05-31T10:12:19.970Z,5.50
2017-05-31T10:14:48.347Z,5.02
2017-05-31T10:17:16.706Z,5.30
2017-05-31T10:19:45.481Z,5.96
2017-05-31T10:22:13.044Z,6.48
2017-05-31T10:24:41.406Z,5.20
2017-05-31T10:27:10.139Z,7.54
2017-05-31T10:29:38.517Z,5.32
2017-05-31T10:32:06.081Z,5.64
2017-05-31T10:34:34.740Z,5.34
2017-05-31T10:37:03.142Z,5.74
2017-05-31T10:39:31.462Z,5.58
2017-05-31T10:42:00.018Z,5.50
2017-05-31T10:44:28.359Z,5.70
2017-05-31T10:46:56.689Z,5.70
2017-05-31T10:49:25.265Z,5.50
2017-05-31T10:51:53.581Z,4.56
2017-05-31T10:54:21.919Z,5.10
2017-05-31T10:56:50.533Z,5.20
2017-05-31T10:59:18.114Z,5.28
2017-05-31T11:01:45.714Z,5.54
2017-05-31T11:04:14.375Z,6.12
2017-05-31T11:06:42.735Z,4.50
2017-05-31T11:09:11.098Z,5.10
2017-05-31T11:11:39.679Z,5.76
2017-05-31T11:14:08.007Z,5.62
2017-05-31T11:16:36.317Z,5.84
2017-05-31T11:19:04.881Z,5.92
2017-05-31T11:21:33.214Z,5.52
2017-05-31T11:24:01.543Z,6.22
2017-05-31T11:26:30.177Z,5.42
2017-05-31T11:28:58.540Z,5.94
2017-05-31T11:31:26.889Z,7.20
2017-05-31T11:33:55.501Z,6.02
2017-05-31T11:36:23.851Z,63.22
2017-05-31T11:38:52.203Z,5.36
2017-05-31T11:41:21.769Z,36.30
2017-05-31T11:43:49.346Z,6.42
2017-05-31T11:46:17.679Z,7.68
2017-05-31T11:48:46.311Z,10.04
2017-05-31T11:51:13.883Z,7.40
2017-05-31T11:53:41.445Z,8.84
2017-05-31T11:56:10.024Z,6.04
2017-05-31T11:58:38.338Z,9.68
2017-05-31T12:01:05.911Z,11.98
2017-05-31T12:03:33.709Z,45.12
2017-05-31T12:06:02.077Z,24.40
2017-05-31T12:08:30.392Z,6.44
2017-05-31T12:10:58.255Z,13.80
2017-05-31T12:13:26.625Z,8.22
2017-05-31T12:15:54.988Z,16.40
2017-05-31T12:18:22.974Z,7.40
2017-05-31T12:20:52.666Z,8.12
2017-05-31T12:23:20.316Z,5.58
2017-05-31T12:25:50.232Z,4.62
2017-05-31T12:28:19.820Z,5.26
2017-05-31T12:30:48.224Z,5.82
2017-05-31T12:33:16.988Z,5.06
2017-05-31T12:35:45.322Z,4.60
2017-05-31T12:38:13.760Z,4.22
2017-05-31T12:40:42.663Z,4.20
2017-05-31T12:43:11.824Z,4.22
2017-05-31T12:45:40.023Z,3.38
2017-05-31T12:48:08.705Z,3.52
2017-05-31T12:50:37.071Z,4.06
2017-05-31T12:53:04.638Z,3.76
2017-05-31T12:55:33.205Z,3.56
2017-05-31T12:58:02.655Z,3.00
2017-05-31T13:00:30.995Z,3.00
2017-05-31T13:02:59.663Z,2.94
2017-05-31T13:05:28.728Z,3.86
2017-05-31T13:07:57.402Z,3.88
2017-05-31T13:10:25.939Z,3.38
2017-05-31T13:12:54.249Z,3.58
2017-05-31T13:15:22.570Z,3.46
2017-05-31T13:17:51.126Z,3.12
2017-05-31T13:20:19.454Z,2.64
2017-05-31T13:22:47.764Z,2.80
2017-05-31T13:25:16.518Z,2.60
2017-05-31T13:27:44.824Z,3.18
2017-05-31T13:30:13.160Z,2.98
2017-05-31T13:32:41.830Z,2.78
2017-05-31T13:35:10.334Z,2.72
2017-05-31T13:37:39.557Z,2.64
2017-05-31T13:40:08.130Z,2.92
2017-05-31T13:42:36.452Z,3.20
2017-05-31T13:45:04.760Z,2.40
2017-05-31T13:47:33.397Z,2.82
2017-05-31T13:50:02.624Z,2.22
2017-05-31T13:52:30.931Z,2.76
2017-05-31T13:54:59.528Z,2.86
2017-05-31T13:57:27.845Z,3.06
2017-05-31T13:59:56.168Z,2.84
2017-05-31T14:02:24.746Z,3.00
2017-05-31T14:04:53.080Z,2.78
2017-05-31T14:07:21.402Z,3.28
2017-05-31T14:09:49.983Z,3.22
2017-05-31T14:12:18.313Z,3.18
2017-05-31T14:14:46.662Z,3.10
2017-05-31T14:17:15.224Z,3.36
2017-05-31T14:19:43.570Z,3.00
2017-05-31T14:22:11.892Z,3.16
2017-05-31T14:24:40.457Z,4.22
2017-05-31T14:27:08.831Z,3.10
2017-05-31T14:29:37.134Z,3.50
2017-05-31T14:32:05.934Z,3.60
2017-05-31T14:34:34.264Z,3.46
2017-05-31T14:37:02.579Z,2.76
2017-05-31T14:39:31.308Z,2.96
2017-05-31T14:41:59.657Z,3.04
2017-05-31T14:44:27.205Z,2.40
2017-05-31T14:46:55.922Z,2.86
2017-05-31T14:49:24.243Z,2.48
2017-05-31T14:51:52.588Z,2.18
2017-05-31T14:54:21.246Z,2.24
2017-05-31T14:56:49.574Z,2.60
2017-05-31T14:59:17.127Z,3.08
2017-05-31T15:01:45.966Z,2.80
2017-05-31T15:04:14.316Z,2.58
2017-05-31T15:06:42.664Z,2.70
2017-05-31T15:09:11.225Z,2.66
2017-05-31T15:11:39.594Z,2.42
2017-05-31T15:14:07.994Z,2.40
2017-05-31T15:16:36.600Z,2.32
2017-05-31T15:19:04.920Z,2.30
2017-05-31T15:21:33.271Z,2.10
2017-05-31T15:24:01.846Z,2.00
2017-05-31T15:26:30.204Z,2.34
2017-05-31T15:28:58.602Z,2.32
2017-05-31T15:31:27.171Z,2.08
2017-05-31T15:33:54.774Z,1.90
2017-05-31T15:36:23.121Z,2.00
2017-05-31T15:38:51.773Z,1.84
2017-05-31T15:41:19.392Z,2.14
2017-05-31T15:43:47.817Z,1.90
2017-05-31T15:46:16.428Z,1.90
2017-05-31T15:48:43.992Z,2.08
2017-05-31T15:51:11.607Z,2.08
2017-05-31T15:53:39.414Z,1.60
2017-05-31T15:56:07.749Z,1.80
2017-05-31T15:58:36.070Z,2.00
2017-05-31T16:01:03.904Z,2.34
2017-05-31T16:03:32.221Z,2.22
2017-05-31T16:06:00.570Z,2.20
2017-05-31T16:08:29.230Z,2.22
2017-05-31T16:10:57.603Z,2.20
2017-05-31T16:13:25.959Z,2.22
2017-05-31T16:15:54.523Z,2.54
2017-05-31T16:18:22.859Z,2.32
2017-05-31T16:20:51.172Z,2.20
2017-05-31T16:23:19.830Z,2.38
2017-05-31T16:25:48.149Z,2.28
2017-05-31T16:28:16.479Z,2.12
2017-05-31T16:30:45.021Z,2.58
2017-05-31T16:33:13.354Z,2.86
2017-05-31T16:35:41.666Z,2.92
2017-05-31T16:38:10.255Z,2.58
2017-05-31T16:40:38.605Z,2.62
2017-05-31T16:43:06.194Z,2.28
2017-05-31T16:45:34.779Z,2.22
2017-05-31T16:48:03.139Z,2.88
2017-05-31T16:50:31.532Z,2.86
2017-05-31T16:53:00.283Z,2.52
2017-05-31T16:55:29.523Z,2.94
2017-05-31T16:57:58.064Z,3.20
2017-05-31T17:00:26.747Z,2.98
2017-05-31T17:02:55.134Z,3.50
2017-05-31T17:05:23.475Z,2.90
2017-05-31T17:07:52.218Z,3.10
2017-05-31T17:10:20.536Z,2.84
2017-05-31T17:12:48.901Z,2.84
2017-05-31T17:15:17.469Z,3.10
2017-05-31T17:17:45.865Z,3.16
2017-05-31T17:20:15.192Z,3.18
2017-05-31T17:22:44.308Z,3.26
2017-05-31T17:25:12.769Z,2.78
2017-05-31T17:27:41.093Z,2.76
2017-05-31T17:30:09.656Z,2.98
2017-05-31T17:32:37.295Z,4.22
2017-05-31T17:35:05.736Z,2.98
2017-05-31T17:37:34.309Z,3.08
2017-05-31T17:40:02.658Z,2.92
2017-05-31T17:42:30.996Z,2.80
2017-05-31T17:44:59.730Z,3.02
2017-05-31T17:47:28.141Z,3.66
2017-05-31T17:49:56.990Z,3.22
2017-05-31T17:52:25.728Z,3.12
2017-05-31T17:54:53.500Z,3.36
2017-05-31T17:57:21.856Z,3.20
2017-05-31T17:59:50.835Z,2.68
2017-05-31T18:02:19.271Z,3.02
2017-05-31T18:04:55.145Z,2.98
2017-05-31T18:07:23.645Z,2.82
2017-05-31T18:09:52.264Z,2.88
2017-05-31T18:12:19.910Z,3.16
2017-05-31T18:32:36.501Z,3.22
2017-05-31T18:35:05.587Z,3.54
2017-05-31T18:37:46.558Z,3.40
2017-05-31T18:40:20.643Z,3.64
2017-05-31T18:42:54.338Z,3.28
2017-05-31T18:45:31.044Z,5.10
2017-05-31T18:48:05.652Z,3.84
2017-05-31T18:50:33.688Z,3.64
2017-05-31T18:53:02.062Z,3.76
2017-05-31T18:55:30.495Z,3.78
2017-05-31T18:57:59.382Z,3.76
2017-05-31T19:00:26.996Z,3.56
2017-05-31T19:03:02.121Z,4.16
2017-05-31T19:05:31.519Z,4.30
2017-05-31T19:08:00.197Z,4.36
2017-05-31T19:10:28.398Z,4.10
2017-05-31T19:12:57.054Z,3.84
2017-05-31T19:18:01.702Z,4.02
2017-05-31T19:20:31.537Z,4.70
2017-05-31T19:23:00.327Z,5.38
2017-05-31T19:25:28.203Z,4.26
2017-05-31T19:27:56.931Z,6.46
2017-05-31T19:30:33.986Z,6.38
2017-05-31T19:38:49.491Z,4.50
2017-05-31T19:44:01.578Z,5.08
2017-05-31T19:46:42.464Z,9.34
2017-05-31T19:52:21.641Z,11.54
2017-05-31T20:00:50.868Z,6.02
2017-05-31T20:03:23.641Z,8.72
2017-05-31T20:05:53.405Z,5.80
2017-05-31T20:08:25.162Z,6.70
2017-05-31T20:11:02.068Z,7.12
2017-05-31T20:13:31.024Z,7.66
2017-05-31T20:16:00.979Z,7.74
2017-05-31T20:24:19.375Z,6.42
2017-05-31T20:26:50.814Z,6.48
2017-05-31T20:29:28.167Z,6.74
2017-05-31T20:34:43.353Z,7.10
2017-05-31T20:37:20.255Z,6.28
2017-05-31T20:45:41.257Z,7.06
2017-05-31T20:48:19.594Z,7.98
2017-05-31T20:50:51.093Z,8.02
2017-05-31T20:53:36.086Z,8.16
2017-05-31T21:04:12.177Z,9.78
2017-05-31T21:06:55.798Z,10.62
2017-05-31T21:09:28.515Z,10.46
2017-05-31T21:14:48.118Z,9.52
2017-05-31T21:17:43.538Z,11.84
2017-05-31T21:20:18.127Z,9.76
2017-05-31T21:22:50.538Z,9.38
2017-05-31T21:28:06.352Z,9.22
2017-05-31T21:30:54.170Z,9.12
2017-05-31T21:33:36.973Z,8.36
2017-05-31T21:36:13.647Z,9.26
2017-05-31T21:38:53.033Z,9.30
2017-05-31T21:41:31.057Z,7.64
2017-05-31T21:47:03.230Z,8.68
2017-05-31T21:49:37.852Z,8.62
2017-05-31T21:52:15.107Z,9.04
2017-05-31T21:54:57.909Z,9.02
2017-05-31T21:57:39.609Z,10.58
2017-05-31T22:00:12.878Z,9.28
2017-05-31T22:02:42.932Z,10.06
2017-05-31T22:05:15.215Z,9.08
2017-05-31T22:07:47.860Z,8.98
2017-05-31T22:10:20.181Z,8.12
2017-05-31T22:12:58.065Z,9.82
2017-05-31T22:15:27.776Z,8.54
2017-05-31T22:18:01.177Z,10.68
2017-05-31T22:20:29.550Z,8.74
2017-05-31T22:22:57.883Z,9.52
2017-05-31T22:25:26.521Z,9.06
2017-05-31T22:27:54.861Z,8.90
2017-05-31T22:30:23.209Z,9.56
2017-05-31T22:32:52.007Z,10.22
2017-05-31T22:35:20.379Z,11.30
2017-05-31T22:37:48.722Z,9.88
2017-05-31T22:40:17.461Z,10.30
2017-05-31T22:42:45.781Z,10.22
2017-05-31T22:45:17.480Z,10.76
2017-05-31T22:47:45.831Z,10.82
2017-05-31T22:50:14.168Z,9.68
2017-05-31T22:52:42.975Z,10.28
2017-05-31T22:55:11.306Z,10.14
2017-05-31T22:57:39.711Z,10.50
2017-05-31T23:00:08.506Z,10.66
2017-05-31T23:02:36.949Z,10.66
2017-05-31T23:05:04.644Z,10.72
2017-05-31T23:07:33.396Z,10.68
2017-05-31T23:10:01.816Z,10.92
2017-05-31T23:12:30.229Z,11.88
2017-05-31T23:14:59.028Z,10.98
2017-05-31T23:17:27.401Z,11.46
2017-05-31T23:19:55.747Z,10.90
2017-05-31T23:22:24.393Z,12.18
2017-05-31T23:24:52.733Z,11.12
2017-05-31T23:27:21.150Z,10.72
2017-05-31T23:29:49.118Z,10.46
2017-05-31T23:32:17.463Z,10.72
2017-05-31T23:34:45.833Z,11.10
2017-05-31T23:37:14.720Z,11.38
2017-05-31T23:39:43.086Z,9.96
2017-05-31T23:42:11.446Z,10.06
2017-05-31T23:44:40.269Z,10.22
2017-05-31T23:47:08.647Z,9.80
2017-05-31T23:49:37.047Z,10.86
2017-05-31T23:52:05.832Z,8.94
2017-05-31T23:54:33.443Z,9.76
2017-05-31T23:57:01.756Z,8.32
2017-05-31T23:59:30.382Z,9.22
